Time;durP1;ratioP1;P1;durP2;ratioP2;P2;SDS_P1;SDS_P2;PMS_P1;PMS_P2;Temp;Humidity;BMP_temperature;BMP_pressure;BME280_temperature;BME280_humidity;BME280_pressure;Samples;Min_cycle;Max_cycle;Signal;HPM_P1;HPM_P2
2024/01/18 00:00:04;;;;;;;0.63;0.30;;;;;;;6.85;100.00;93305.78;2065849;28;20489;-61
2024/01/18 00:01:08;;;;;;;0.32;0.20;;;;;;;6.87;100.00;93289.38;2066532;28;20485;-61
2024/01/18 00:02:09;;;;;;;0.77;0.40;;;;;;;6.90;100.00;93296.91;2066527;28;20049;-61
2024/01/18 00:03:10;;;;;;;0.82;0.40;;;;;;;6.92;100.00;93315.63;2066506;28;20367;-61
2024/01/18 00:04:11;;;;;;;0.77;0.35;;;;;;;6.91;100.00;93319.16;2065851;28;20062;-61
2024/01/18 00:05:13;;;;;;;1.27;0.20;;;;;;;6.88;100.00;93303.94;2066473;28;20050;-62
2024/01/18 00:06:14;;;;;;;1.67;0.20;;;;;;;6.87;100.00;93282.47;2066489;28;20049;-62
2024/01/18 00:07:15;;;;;;;0.43;0.17;;;;;;;6.90;100.00;93286.59;2066088;28;20501;-62
2024/01/18 00:08:16;;;;;;;0.35;0.22;;;;;;;6.92;100.00;93303.56;2065906;28;20061;-62
2024/01/18 00:09:17;;;;;;;0.15;0.10;;;;;;;6.95;100.00;93303.34;2066087;28;20050;-62
2024/01/18 00:10:23;;;;;;;0.60;0.10;;;;;;;6.99;100.00;93304.75;2065670;28;20383;-63
2024/01/18 00:11:25;;;;;;;0.40;0.20;;;;;;;6.97;100.00;93308.38;2066358;28;20054;-63
2024/01/18 00:12:26;;;;;;;0.82;0.30;;;;;;;6.98;100.00;93310.84;2066163;28;20057;-62
2024/01/18 00:13:28;;;;;;;0.28;0.20;;;;;;;7.00;100.00;93303.81;2066246;28;20379;-63
2024/01/18 00:14:29;;;;;;;0.38;0.20;;;;;;;7.08;100.00;93313.53;2066467;28;20500;-62
2024/01/18 00:15:30;;;;;;;0.20;0.20;;;;;;;7.01;100.00;93320.13;2066056;28;20057;-63
2024/01/18 00:16:33;;;;;;;0.90;0.30;;;;;;;6.94;100.00;93303.44;2065297;28;20044;-63
2024/01/18 00:17:34;;;;;;;0.55;0.20;;;;;;;6.97;100.00;93298.06;2065860;28;20050;-63
2024/01/18 00:18:35;;;;;;;0.20;0.20;;;;;;;7.02;100.00;93314.00;2066283;28;20379;-64
2024/01/18 00:19:36;;;;;;;0.80;0.10;;;;;;;7.01;100.00;93295.13;2065905;28;20399;-63
2024/01/18 00:20:37;;;;;;;0.52;0.20;;;;;;;7.07;100.00;93311.91;2065807;28;20046;-62
2024/01/18 00:21:38;;;;;;;0.20;0.17;;;;;;;7.04;100.00;93307.78;2065355;28;20069;-62
2024/01/18 00:22:39;;;;;;;0.15;0.10;;;;;;;7.00;100.00;93302.97;2065358;28;20478;-62
2024/01/18 00:23:41;;;;;;;0.98;0.30;;;;;;;7.03;100.00;93313.91;2066265;28;20050;-63
2024/01/18 00:24:42;;;;;;;0.25;0.20;;;;;;;6.98;100.00;93315.19;2066296;28;20054;-63
2024/01/18 00:25:43;;;;;;;0.95;0.10;;;;;;;6.98;100.00;93317.78;2066369;28;20409;-63
2024/01/18 00:26:44;;;;;;;0.10;0.10;;;;;;;7.00;100.00;93305.56;2066201;28;20046;-63
2024/01/18 00:27:45;;;;;;;0.20;0.17;;;;;;;6.97;100.00;93308.38;2066410;28;20068;-63
2024/01/18 00:28:46;;;;;;;0.20;0.10;;;;;;;6.97;100.00;93313.53;2065940;28;20387;-63
2024/01/18 00:29:47;;;;;;;0.10;0.10;;;;;;;6.99;100.00;93309.09;2066062;28;20054;-64
2024/01/18 00:30:48;;;;;;;1.77;0.17;;;;;;;6.95;100.00;93303.34;2065511;28;20059;-65
2024/01/18 00:31:49;;;;;;;0.50;0.20;;;;;;;6.93;100.00;93317.31;2066283;28;20046;-66
2024/01/18 00:32:50;;;;;;;0.10;0.10;;;;;;;6.91;100.00;93306.28;2065732;28;20054;-67
2024/01/18 00:33:53;;;;;;;1.30;0.20;;;;;;;6.90;100.00;93318.34;2066260;28;20050;-66
2024/01/18 00:34:54;;;;;;;0.08;0.08;;;;;;;6.88;100.00;93319.41;2066250;28;20458;-67
2024/01/18 00:35:55;;;;;;;0.57;0.20;;;;;;;6.82;100.00;93318.94;2066275;28;20049;-67
2024/01/18 00:36:56;;;;;;;2.47;0.30;;;;;;;6.89;100.00;93319.28;2066223;28;20046;-66
2024/01/18 00:37:57;;;;;;;0.20;0.10;;;;;;;6.83;100.00;93299.09;2066117;28;20065;-66
2024/01/18 00:38:58;;;;;;;0.68;0.10;;;;;;;6.85;100.00;93326.44;2066160;28;20054;-66
2024/01/18 00:39:59;;;;;;;0.20;0.10;;;;;;;6.86;100.00;93311.78;2066102;28;20046;-64
2024/01/18 00:41:00;;;;;;;0.25;0.10;;;;;;;6.85;100.00;93318.69;2066262;28;20401;-64
2024/01/18 00:42:01;;;;;;;0.30;0.10;;;;;;;6.84;100.00;93313.63;2065778;28;20054;-65
2024/01/18 00:43:03;;;;;;;1.17;0.10;;;;;;;6.82;100.00;93311.19;2066142;28;20042;-65
2024/01/18 00:44:04;;;;;;;0.10;0.10;;;;;;;6.80;100.00;93319.97;2066129;28;20046;-65
2024/01/18 00:45:06;;;;;;;0.05;0.00;;;;;;;6.79;100.00;93318.31;2066040;28;20053;-65
2024/01/18 00:46:07;;;;;;;0.08;0.08;;;;;;;6.81;100.00;93317.25;2066195;28;20042;-64
2024/01/18 00:47:08;;;;;;;0.10;0.10;;;;;;;6.82;100.00;93311.19;2065703;28;20046;-64
2024/01/18 00:48:09;;;;;;;0.35;0.15;;;;;;;6.88;100.00;93307.31;2066141;28;20054;-63
2024/01/18 00:49:10;;;;;;;0.60;0.10;;;;;;;6.89;100.00;93321.03;2065818;28;20054;-64
2024/01/18 00:50:12;;;;;;;1.00;0.30;;;;;;;6.88;100.00;93314.25;2065666;28;20058;-64
2024/01/18 00:51:13;;;;;;;0.57;0.10;;;;;;;6.91;100.00;93312.25;2066334;28;20058;-64
2024/01/18 00:52:14;;;;;;;0.10;0.10;;;;;;;6.89;100.00;93318.47;2065686;28;20062;-64
2024/01/18 00:53:15;;;;;;;0.10;0.10;;;;;;;6.88;100.00;93329.72;2065710;28;20054;-64
2024/01/18 00:54:16;;;;;;;0.00;0.00;;;;;;;6.87;100.00;93325.47;2066029;28;20398;-64
2024/01/18 00:55:17;;;;;;;0.65;0.10;;;;;;;6.85;100.00;93330.78;2065943;28;20050;-64
2024/01/18 00:56:18;;;;;;;0.25;0.15;;;;;;;6.82;100.00;93302.63;2065875;28;20047;-64
2024/01/18 00:57:20;;;;;;;0.10;0.00;;;;;;;6.87;100.00;93325.47;2065861;28;20034;-64
2024/01/18 00:58:21;;;;;;;0.30;0.15;;;;;;;6.85;100.00;93335.94;2066035;28;20034;-65
2024/01/18 00:59:22;;;;;;;0.17;0.00;;;;;;;6.81;100.00;93324.19;2065886;28;20053;-64
2024/01/18 01:00:23;;;;;;;0.82;0.20;;;;;;;6.82;100.00;93338.75;2065969;28;20443;-64
2024/01/18 01:01:24;;;;;;;0.75;0.30;;;;;;;6.84;100.00;93336.84;2065610;28;20054;-64
2024/01/18 01:02:26;;;;;;;0.20;0.10;;;;;;;6.87;100.00;93313.44;2064934;28;20046;-64
2024/01/18 01:03:27;;;;;;;0.75;0.10;;;;;;;6.89;100.00;93333.94;2065956;28;20410;-64
2024/01/18 01:04:28;;;;;;;0.30;0.10;;;;;;;6.89;100.00;93326.19;2065338;28;20054;-64
2024/01/18 01:05:29;;;;;;;0.50;0.20;;;;;;;6.91;100.00;93339.81;2065653;28;20058;-64
2024/01/18 01:06:30;;;;;;;0.10;0.10;;;;;;;6.85;100.00;93323.03;2056674;28;20055;-64
2024/01/18 01:07:31;;;;;;;0.00;0.00;;;;;;;6.84;100.00;93337.69;2057351;28;20039;-64
2024/01/18 01:08:32;;;;;;;0.20;0.10;;;;;;;6.89;100.00;93344.25;2057082;28;20046;-61
2024/01/18 01:09:33;;;;;;;1.75;0.30;;;;;;;6.87;100.00;93349.53;2057653;28;20046;-61
2024/01/18 01:10:34;;;;;;;0.10;0.10;;;;;;;6.88;100.00;93363.25;2065795;28;20054;-61
2024/01/18 01:11:36;;;;;;;0.15;0.15;;;;;;;6.85;100.00;93357.38;2065323;28;20054;-60
2024/01/18 01:12:37;;;;;;;0.17;0.05;;;;;;;6.91;100.00;93356.09;2066027;28;20073;-60
2024/01/18 01:13:38;;;;;;;0.10;0.03;;;;;;;6.93;100.00;93363.75;2065917;28;20045;-61
2024/01/18 01:14:39;;;;;;;1.27;0.10;;;;;;;6.84;100.00;93365.22;2065251;28;20065;-60
2024/01/18 01:15:40;;;;;;;0.38;0.10;;;;;;;6.93;100.00;93358.59;2065728;28;20050;-60
2024/01/18 01:16:41;;;;;;;0.13;0.13;;;;;;;6.95;100.00;93356.69;2065959;28;20077;-60
2024/01/18 01:17:43;;;;;;;0.28;0.10;;;;;;;6.96;100.00;93343.69;2065953;28;20057;-60
2024/01/18 01:18:44;;;;;;;1.63;0.30;;;;;;;6.97;100.00;93341.91;2066128;28;20477;-60
2024/01/18 01:19:45;;;;;;;0.65;0.30;;;;;;;6.94;100.00;93368.78;2065580;28;20050;-60
2024/01/18 01:20:46;;;;;;;0.10;0.10;;;;;;;6.82;100.00;93356.81;2066071;28;20054;-60
2024/01/18 01:21:47;;;;;;;0.55;0.20;;;;;;;6.80;100.00;93369.81;2065978;28;20482;-60
2024/01/18 01:22:48;;;;;;;0.22;0.22;;;;;;;6.76;100.00;93363.25;2065308;28;20049;-61
2024/01/18 01:23:51;;;;;;;0.00;0.00;;;;;;;6.71;100.00;93364.50;2066060;28;20046;-60
2024/01/18 01:24:52;;;;;;;0.10;0.10;;;;;;;6.71;100.00;93355.03;2065637;28;20398;-60
2024/01/18 01:25:53;;;;;;;0.30;0.20;;;;;;;6.72;100.00;93369.56;2065140;28;20058;-60
2024/01/18 01:26:56;;;;;;;0.13;0.13;;;;;;;6.71;100.00;93360.19;2065824;28;20038;-60
2024/01/18 01:27:57;;;;;;;0.60;0.40;;;;;;;6.68;100.00;93362.97;2065733;28;20050;-64
2024/01/18 01:28:59;;;;;;;0.20;0.20;;;;;;;6.67;100.00;93365.66;2065281;28;20062;-60
2024/01/18 01:30:00;;;;;;;0.00;0.00;;;;;;;6.66;100.00;93351.16;2065751;28;20046;-60
2024/01/18 01:31:01;;;;;;;0.17;0.10;;;;;;;6.69;100.00;93363.81;2065655;28;20462;-60
2024/01/18 01:32:03;;;;;;;0.35;0.20;;;;;;;6.73;100.00;93349.72;2065828;28;20053;-60
2024/01/18 01:33:04;;;;;;;0.38;0.20;;;;;;;6.71;100.00;93357.59;2065697;28;20046;-60
2024/01/18 01:34:05;;;;;;;0.45;0.20;;;;;;;6.70;100.00;93361.09;2065643;28;20050;-60
2024/01/18 01:35:06;;;;;;;0.00;0.00;;;;;;;6.67;100.00;93357.94;2065925;28;20478;-60
2024/01/18 01:36:07;;;;;;;0.30;0.10;;;;;;;6.64;100.00;93356.41;2065746;28;20039;-60
2024/01/18 01:37:09;;;;;;;0.10;0.10;;;;;;;6.71;100.00;93355.03;2065040;28;20070;-62
2024/01/18 01:38:10;;;;;;;0.17;0.10;;;;;;;6.70;100.00;93368.03;2065538;28;20065;-60
2024/01/18 01:39:11;;;;;;;1.00;0.20;;;;;;;6.69;100.00;93354.31;2065691;28;20064;-59
2024/01/18 01:40:12;;;;;;;0.65;0.10;;;;;;;6.68;100.00;93360.38;2064785;28;20061;-60
2024/01/18 01:41:13;;;;;;;0.10;0.10;;;;;;;6.61;100.00;93360.03;2064924;28;20054;-60
2024/01/18 01:42:15;;;;;;;0.98;0.20;;;;;;;6.66;100.00;93357.13;2056951;28;20050;-60
2024/01/18 01:43:17;;;;;;;0.60;0.28;;;;;;;6.61;100.00;93361.78;2057075;28;20046;-60
2024/01/18 01:44:18;;;;;;;0.28;0.20;;;;;;;6.59;100.00;93366.22;2065746;28;20042;-60
2024/01/18 01:45:19;;;;;;;0.32;0.20;;;;;;;6.56;100.00;93366.47;2065753;28;20046;-60
2024/01/18 01:46:20;;;;;;;0.32;0.10;;;;;;;6.59;100.00;93356.72;2065750;28;20047;-59
2024/01/18 01:47:21;;;;;;;0.17;0.10;;;;;;;6.56;100.00;93359.53;2065577;28;20054;-60
2024/01/18 01:48:22;;;;;;;0.17;0.17;;;;;;;6.59;100.00;93358.50;2064897;28;20046;-59
2024/01/18 01:49:23;;;;;;;0.10;0.10;;;;;;;6.60;100.00;93371.28;2048493;29;20430;-59
2024/01/18 01:50:24;;;;;;;0.22;0.10;;;;;;;6.56;100.00;93361.31;2048713;28;20058;-59
2024/01/18 01:51:28;;;;;;;0.10;0.10;;;;;;;6.58;100.00;93356.88;2056419;28;20094;-60
2024/01/18 01:52:29;;;;;;;0.35;0.17;;;;;;;6.56;100.00;93372.44;2049466;28;20047;-60
2024/01/18 01:53:30;;;;;;;0.17;0.10;;;;;;;6.53;100.00;93370.09;2049221;28;20046;-60
2024/01/18 01:54:32;;;;;;;0.10;0.10;;;;;;;6.53;100.00;93372.66;2056785;28;20081;-60
2024/01/18 01:55:33;;;;;;;0.00;0.00;;;;;;;6.54;100.00;93373.47;2056432;28;20054;-60
2024/01/18 01:56:34;;;;;;;0.20;0.10;;;;;;;6.51;100.00;93371.13;2057001;28;20486;-59
2024/01/18 01:57:36;;;;;;;0.22;0.17;;;;;;;6.50;100.00;93364.34;2065258;28;20042;-59
2024/01/18 01:58:37;;;;;;;0.38;0.10;;;;;;;6.48;100.00;93368.78;2057060;28;20081;-60
2024/01/18 01:59:38;;;;;;;0.30;0.17;;;;;;;6.48;100.00;93366.19;2056693;28;20058;-60
2024/01/18 02:00:39;;;;;;;0.35;0.20;;;;;;;6.49;100.00;93360.09;2065720;28;20043;-60
2024/01/18 02:01:41;;;;;;;0.45;0.20;;;;;;;6.45;100.00;93350.97;2064990;28;20478;-59
2024/01/18 02:02:43;;;;;;;0.10;0.10;;;;;;;6.45;100.00;93349.19;2064633;28;20057;-59
2024/01/18 02:03:44;;;;;;;0.40;0.10;;;;;;;6.51;100.00;93341.00;2057002;28;20047;-60
2024/01/18 02:04:45;;;;;;;0.70;0.20;;;;;;;6.62;100.00;93353.09;2056912;28;20446;-59
2024/01/18 02:05:46;;;;;;;1.85;0.20;;;;;;;6.68;100.00;93347.50;2056174;28;20063;-59
2024/01/18 02:06:50;;;;;;;0.38;0.10;;;;;;;6.67;100.00;93348.44;2065094;28;20054;-59
2024/01/18 02:07:51;;;;;;;0.25;0.17;;;;;;;6.67;100.00;93356.16;2048890;29;20058;-59
2024/01/18 02:08:52;;;;;;;0.57;0.10;;;;;;;6.72;100.00;93341.19;2049008;28;20444;-59
2024/01/18 02:09:53;;;;;;;0.57;0.13;;;;;;;6.78;100.00;93360.53;2065815;28;20042;-59
2024/01/18 02:10:54;;;;;;;1.20;0.20;;;;;;;6.75;100.00;93351.25;2056894;28;20047;-59
2024/01/18 02:11:55;;;;;;;0.22;0.10;;;;;;;6.77;100.00;93346.00;2056384;28;20399;-59
2024/01/18 02:12:57;;;;;;;0.10;0.10;;;;;;;6.79;100.00;93344.09;2056182;28;20168;-59
2024/01/18 02:13:58;;;;;;;0.38;0.20;;;;;;;6.74;100.00;93349.63;2056707;28;20062;-59
2024/01/18 02:14:59;;;;;;;0.40;0.10;;;;;;;6.78;100.00;93361.34;2066677;28;20401;-60
2024/01/18 02:16:02;;;;;;;0.65;0.32;;;;;;;6.76;100.00;93355.50;2058468;28;20058;-59
2024/01/18 02:17:04;;;;;;;0.28;0.10;;;;;;;6.75;100.00;93356.41;2058921;28;20475;-60
2024/01/18 02:18:05;;;;;;;1.25;0.20;;;;;;;6.74;100.00;93359.94;2058625;28;20123;-59
2024/01/18 02:19:06;;;;;;;3.20;0.25;;;;;;;6.72;100.00;93351.50;2058571;28;20042;-60
2024/01/18 02:20:07;;;;;;;0.47;0.28;;;;;;;6.74;100.00;93356.56;2067429;28;20065;-59
2024/01/18 02:21:09;;;;;;;0.57;0.30;;;;;;;6.74;100.00;93329.00;2058627;28;20053;-59
2024/01/18 02:22:10;;;;;;;1.10;0.35;;;;;;;6.80;100.00;93356.09;2049925;28;20054;-59
2024/01/18 02:23:11;;;;;;;3.15;0.20;;;;;;;6.81;100.00;93343.06;2050648;28;20054;-59
2024/01/18 02:24:15;;;;;;;0.30;0.10;;;;;;;6.83;100.00;93359.25;2042403;29;20122;-59
2024/01/18 02:25:21;;;;;;;0.25;0.20;;;;;;;6.81;100.00;93362.88;2051368;28;20042;-60
2024/01/18 02:26:22;;;;;;;0.40;0.20;;;;;;;6.81;100.00;93366.28;2066559;28;20413;-59
2024/01/18 02:27:23;;;;;;;1.10;0.20;;;;;;;6.81;100.00;93355.16;2067080;28;20042;-59
2024/01/18 02:28:24;;;;;;;0.90;0.30;;;;;;;6.82;100.00;93365.34;2066721;28;20478;-59
2024/01/18 02:29:25;;;;;;;0.65;0.10;;;;;;;6.84;100.00;93348.00;2067269;28;20053;-60
2024/01/18 02:30:26;;;;;;;0.40;0.13;;;;;;;6.86;100.00;93350.47;2067189;28;20042;-59
2024/01/18 02:31:27;;;;;;;1.23;0.30;;;;;;;6.94;100.00;93362.78;2066984;28;20065;-59
2024/01/18 02:32:28;;;;;;;0.55;0.10;;;;;;;6.91;100.00;93357.88;2067154;28;20035;-59
2024/01/18 02:33:30;;;;;;;0.80;0.20;;;;;;;6.88;100.00;93363.25;2067254;28;20089;-59
2024/01/18 02:34:31;;;;;;;0.03;0.03;;;;;;;6.88;100.00;93361.50;2050156;29;20063;-59
2024/01/18 02:35:33;;;;;;;1.05;0.30;;;;;;;6.89;100.00;93368.28;2050439;28;20035;-59
2024/01/18 02:36:34;;;;;;;0.10;0.10;;;;;;;6.88;100.00;93346.03;2067148;28;20049;-59
2024/01/18 02:37:35;;;;;;;0.80;0.22;;;;;;;6.90;100.00;93369.13;2058576;28;20510;-59
2024/01/18 02:38:36;;;;;;;4.45;0.55;;;;;;;6.89;100.00;93368.28;2050401;29;20051;-60
2024/01/18 02:39:37;;;;;;;0.10;0.10;;;;;;;6.88;100.00;93382.13;2058678;28;20038;-59
2024/01/18 02:40:38;;;;;;;0.10;0.10;;;;;;;6.85;100.00;93372.88;2066768;28;20050;-59
2024/01/18 02:41:41;;;;;;;0.00;0.00;;;;;;;6.85;100.00;93362.53;2050111;29;20054;-59
2024/01/18 02:42:42;;;;;;;0.17;0.10;;;;;;;6.99;100.00;93358.13;2058312;28;20053;-61
2024/01/18 02:43:43;;;;;;;0.50;0.10;;;;;;;6.94;100.00;93363.59;2057663;28;20453;-59
2024/01/18 02:44:44;;;;;;;0.20;0.10;;;;;;;6.88;100.00;93365.84;2042485;29;20059;-59
2024/01/18 02:45:45;;;;;;;0.65;0.30;;;;;;;6.85;100.00;93372.88;2034572;28;20044;-59
2024/01/18 02:46:47;;;;;;;0.45;0.17;;;;;;;6.83;100.00;93358.44;2057820;28;20055;-59
2024/01/18 02:47:48;;;;;;;0.25;0.10;;;;;;;6.82;100.00;93361.97;2050575;29;20159;-59
2024/01/18 02:48:49;;;;;;;0.40;0.17;;;;;;;6.80;100.00;93369.00;2050202;28;20438;-59
2024/01/18 02:49:50;;;;;;;1.15;0.30;;;;;;;6.77;100.00;93364.88;2066650;28;20132;-59
2024/01/18 02:50:51;;;;;;;0.40;0.20;;;;;;;6.75;100.00;93360.75;2066525;28;20058;-59
2024/01/18 02:51:52;;;;;;;0.30;0.13;;;;;;;6.79;100.00;93364.75;2066116;28;20065;-59
2024/01/18 02:52:53;;;;;;;0.10;0.10;;;;;;;6.81;100.00;93370.63;2065858;28;20409;-59
2024/01/18 02:53:54;;;;;;;0.25;0.10;;;;;;;6.81;100.00;93373.19;2066917;28;20038;-59
2024/01/18 02:54:55;;;;;;;0.82;0.15;;;;;;;6.83;100.00;93373.91;2066840;28;20050;-59
2024/01/18 02:55:56;;;;;;;0.75;0.50;;;;;;;6.83;100.00;93374.72;2066926;28;20402;-59
2024/01/18 02:56:58;;;;;;;0.08;0.08;;;;;;;6.86;100.00;93373.69;2066387;28;20058;-59
2024/01/18 02:57:59;;;;;;;0.47;0.20;;;;;;;6.88;100.00;93369.25;2066833;28;20066;-59
2024/01/18 02:59:00;;;;;;;0.38;0.20;;;;;;;6.90;100.00;93371.72;2067129;28;20409;-59
2024/01/18 03:00:01;;;;;;;0.22;0.10;;;;;;;6.91;100.00;93375.94;2066795;28;20062;-62
2024/01/18 03:01:02;;;;;;;0.55;0.28;;;;;;;6.88;100.00;93368.41;2066253;28;20054;-59
2024/01/18 03:02:03;;;;;;;0.35;0.15;;;;;;;6.90;100.00;93379.47;2067177;28;20042;-59
2024/01/18 03:03:04;;;;;;;0.08;0.08;;;;;;;6.90;100.00;93371.72;2066983;28;20050;-59
2024/01/18 03:04:05;;;;;;;0.32;0.20;;;;;;;6.95;100.00;93373.00;2066506;28;20074;-59
2024/01/18 03:05:07;;;;;;;0.30;0.20;;;;;;;6.98;100.00;93362.47;2066299;28;20061;-59
2024/01/18 03:06:08;;;;;;;0.45;0.20;;;;;;;7.02;100.00;93356.13;2066918;28;20046;-59
2024/01/18 03:07:09;;;;;;;0.10;0.10;;;;;;;7.03;100.00;93370.69;2066750;28;20045;-58
2024/01/18 03:08:10;;;;;;;0.10;0.10;;;;;;;7.03;100.00;93368.09;2067090;28;20049;-59
2024/01/18 03:09:12;;;;;;;0.00;0.00;;;;;;;7.02;100.00;93374.19;2066861;28;20050;-58
2024/01/18 03:10:13;;;;;;;1.42;0.20;;;;;;;7.05;100.00;93373.13;2066164;28;20482;-59
2024/01/18 03:11:15;;;;;;;0.25;0.13;;;;;;;7.02;100.00;93373.34;2066825;28;20050;-59
2024/01/18 03:12:16;;;;;;;0.10;0.10;;;;;;;7.00;100.00;93364.91;2066412;28;20095;-59
2024/01/18 03:13:17;;;;;;;0.30;0.20;;;;;;;7.03;99.85;93372.41;2066777;28;20049;-58
2024/01/18 03:14:20;;;;;;;0.13;0.10;;;;;;;7.02;99.57;93368.19;2067012;28;20038;-58
2024/01/18 03:15:21;;;;;;;0.10;0.10;;;;;;;7.02;99.78;93353.53;2067044;28;20049;-59
2024/01/18 03:16:22;;;;;;;0.03;0.00;;;;;;;7.03;99.51;93354.34;2066766;28;20037;-58
2024/01/18 03:17:23;;;;;;;0.00;0.00;;;;;;;7.05;99.16;93357.66;2066537;28;20497;-58
2024/01/18 03:18:24;;;;;;;0.10;0.00;;;;;;;7.08;98.95;93360.00;2066714;28;20042;-59
2024/01/18 03:19:25;;;;;;;0.05;0.05;;;;;;;7.13;98.43;93369.97;2066115;28;20050;-58
2024/01/18 03:20:26;;;;;;;1.38;0.20;;;;;;;7.11;98.76;93362.38;2066792;28;20042;-58
2024/01/18 03:21:28;;;;;;;0.28;0.10;;;;;;;7.11;98.48;93371.84;2066204;28;20046;-58
2024/01/18 03:22:29;;;;;;;0.10;0.10;;;;;;;7.13;97.81;93380.28;2066191;28;20401;-58
2024/01/18 03:23:30;;;;;;;1.30;0.30;;;;;;;7.05;98.73;93384.25;2066713;28;20038;-59
2024/01/18 03:24:31;;;;;;;0.25;0.10;;;;;;;7.05;98.62;93371.38;2066923;28;20050;-58
2024/01/18 03:25:32;;;;;;;0.20;0.20;;;;;;;7.04;98.81;93372.31;2065628;28;20479;-58
2024/01/18 03:26:33;;;;;;;0.32;0.10;;;;;;;7.03;98.39;93372.41;2066844;28;20046;-58
2024/01/18 03:27:34;;;;;;;0.85;0.28;;;;;;;7.00;98.84;93382.97;2065702;28;20054;-58
2024/01/18 03:28:35;;;;;;;0.15;0.15;;;;;;;6.96;99.26;93379.00;2066363;28;20050;-58
2024/01/18 03:29:38;;;;;;;1.98;0.17;;;;;;;6.94;99.35;93380.84;2066835;28;20045;-59
2024/01/18 03:30:40;;;;;;;0.08;0.08;;;;;;;6.95;99.02;93379.91;2066006;28;20411;-58
2024/01/18 03:31:41;;;;;;;0.38;0.10;;;;;;;6.94;98.85;93367.97;2066251;28;20054;-58
2024/01/18 03:32:42;;;;;;;0.10;0.10;;;;;;;6.93;99.03;93371.47;2066267;28;20049;-58
2024/01/18 03:33:43;;;;;;;0.38;0.10;;;;;;;6.92;98.65;93374.97;2066559;28;20093;-58
2024/01/18 03:34:44;;;;;;;0.10;0.10;;;;;;;6.92;99.14;93369.81;2065543;28;20501;-58
2024/01/18 03:35:45;;;;;;;0.22;0.08;;;;;;;6.96;98.94;93379.00;2066224;28;20065;-58
2024/01/18 03:36:46;;;;;;;0.15;0.10;;;;;;;6.98;98.81;93367.63;2066668;28;20046;-58
2024/01/18 03:37:48;;;;;;;0.40;0.00;;;;;;;6.98;98.55;93366.81;2066110;28;20054;-58
2024/01/18 03:38:49;;;;;;;0.43;0.17;;;;;;;6.96;98.60;93358.34;2066818;28;20042;-57
2024/01/18 03:39:50;;;;;;;0.20;0.10;;;;;;;6.95;98.75;93359.25;2066595;28;20050;-57
2024/01/18 03:40:51;;;;;;;0.60;0.20;;;;;;;7.03;98.44;93369.84;2066641;28;20050;-58
2024/01/18 03:41:52;;;;;;;0.15;0.08;;;;;;;7.02;98.15;93369.00;2066424;28;20057;-58
2024/01/18 03:42:53;;;;;;;0.10;0.10;;;;;;;7.02;98.17;93344.97;2065944;28;20474;-58
2024/01/18 03:43:54;;;;;;;0.15;0.00;;;;;;;7.10;97.53;93352.97;2065867;28;20054;-58
2024/01/18 03:44:55;;;;;;;0.25;0.10;;;;;;;7.14;97.38;93359.53;2066842;28;20050;-57
2024/01/18 03:45:56;;;;;;;0.63;0.10;;;;;;;7.16;97.18;93365.38;2066617;28;20042;-58
2024/01/18 03:46:59;;;;;;;0.22;0.20;;;;;;;7.10;97.59;93365.03;2066516;28;20050;-58
2024/01/18 03:48:00;;;;;;;0.05;0.05;;;;;;;7.11;97.16;93362.38;2066158;28;20062;-58
2024/01/18 03:49:01;;;;;;;0.20;0.17;;;;;;;7.14;97.13;93369.88;2065991;28;20058;-58
2024/01/18 03:50:03;;;;;;;0.10;0.10;;;;;;;7.11;97.25;93362.38;2066518;28;20057;-58
2024/01/18 03:51:05;;;;;;;0.70;0.20;;;;;;;7.08;97.66;93365.16;2066459;28;20069;-58
2024/01/18 03:52:06;;;;;;;0.45;0.25;;;;;;;7.06;97.57;93361.88;2057643;28;20062;-58
2024/01/18 03:53:07;;;;;;;0.47;0.20;;;;;;;7.08;97.49;93362.56;2057501;28;20050;-58
2024/01/18 03:54:08;;;;;;;0.10;0.10;;;;;;;7.11;97.40;93351.19;2066172;28;20058;-58
2024/01/18 03:55:09;;;;;;;1.33;0.10;;;;;;;7.15;97.28;93353.44;2066205;28;20050;-58
2024/01/18 03:56:11;;;;;;;0.05;0.05;;;;;;;7.16;96.87;93354.25;2066278;28;20474;-58
2024/01/18 03:57:12;;;;;;;0.43;0.10;;;;;;;7.13;97.19;93352.72;2066412;28;20049;-58
2024/01/18 03:58:13;;;;;;;0.13;0.10;;;;;;;7.13;96.84;93354.50;2066557;28;20408;-58
2024/01/18 03:59:15;;;;;;;1.90;0.30;;;;;;;7.13;97.15;93360.47;2066424;28;20181;-58
2024/01/18 04:00:16;;;;;;;0.10;0.10;;;;;;;7.12;97.22;93352.84;2065723;28;20049;-58
2024/01/18 04:01:17;;;;;;;0.52;0.10;;;;;;;7.10;97.20;93359.88;2057738;28;20042;-58
2024/01/18 04:02:18;;;;;;;0.95;0.22;;;;;;;7.09;97.49;93359.06;2057176;28;20061;-58
2024/01/18 04:03:20;;;;;;;0.77;0.15;;;;;;;7.06;97.69;93351.56;2066561;28;20053;-59
2024/01/18 04:04:21;;;;;;;1.08;0.10;;;;;;;7.03;98.24;93351.78;2065805;28;20402;-58
2024/01/18 04:05:22;;;;;;;0.45;0.10;;;;;;;7.03;97.67;93354.34;2066295;28;20046;-58
2024/01/18 04:06:23;;;;;;;0.00;0.00;;;;;;;7.03;98.14;93346.59;2066706;28;20042;-58
2024/01/18 04:07:24;;;;;;;1.80;0.20;;;;;;;7.02;98.09;93356.13;2066270;28;20466;-58
2024/01/18 04:08:25;;;;;;;0.30;0.10;;;;;;;7.04;97.74;93343.09;2066472;28;20045;-58
2024/01/18 04:09:26;;;;;;;0.65;0.20;;;;;;;7.03;97.88;93356.94;2066609;28;20402;-58
2024/01/18 04:10:28;;;;;;;0.40;0.30;;;;;;;7.04;97.76;93340.53;2065640;28;20054;-58
2024/01/18 04:11:29;;;;;;;0.10;0.05;;;;;;;7.11;97.54;93351.19;2066311;28;20054;-57
2024/01/18 04:12:30;;;;;;;0.80;0.10;;;;;;;7.11;97.43;93354.63;2057247;28;20085;-58
2024/01/18 04:13:32;;;;;;;2.85;0.20;;;;;;;7.08;97.63;93354.81;2057778;28;20061;-58
2024/01/18 04:14:33;;;;;;;0.20;0.10;;;;;;;7.06;97.38;93338.66;2066393;28;20053;-58
2024/01/18 04:15:34;;;;;;;0.20;0.10;;;;;;;7.08;97.46;93352.25;2066326;28;20038;-58
2024/01/18 04:16:35;;;;;;;0.10;0.10;;;;;;;7.06;97.51;93357.53;2066300;28;20065;-57
2024/01/18 04:17:37;;;;;;;1.90;0.10;;;;;;;7.02;97.55;93353.53;2065671;28;20061;-57
2024/01/18 04:18:38;;;;;;;0.93;0.25;;;;;;;7.01;97.42;93351.91;2065643;28;20058;-58
2024/01/18 04:19:39;;;;;;;0.20;0.15;;;;;;;7.01;97.70;93346.75;2065577;28;20050;-58
2024/01/18 04:20:40;;;;;;;0.52;0.20;;;;;;;7.02;97.70;93355.28;2065417;28;20061;-58
2024/01/18 04:21:42;;;;;;;0.68;0.20;;;;;;;7.01;97.75;93349.31;2066289;28;20042;-57
2024/01/18 04:22:43;;;;;;;0.17;0.10;;;;;;;7.00;97.81;93354.59;2057057;28;20050;-58
2024/01/18 04:23:44;;;;;;;0.22;0.20;;;;;;;6.97;97.76;93359.97;2057700;28;20054;-58
2024/01/18 04:24:45;;;;;;;0.40;0.22;;;;;;;6.97;98.05;93341.91;2066145;28;20050;-58
2024/01/18 04:25:51;;;;;;;0.20;0.20;;;;;;;6.95;97.95;93331.72;2065689;28;20077;-58
2024/01/18 04:26:52;;;;;;;0.20;0.20;;;;;;;6.98;97.88;93339.25;2057699;28;20042;-57
2024/01/18 04:27:53;;;;;;;1.45;0.20;;;;;;;6.99;97.65;93347.78;2057425;28;20379;-58
2024/01/18 04:28:56;;;;;;;0.40;0.17;;;;;;;6.96;97.74;93342.88;2066254;28;20054;-58
2024/01/18 04:29:57;;;;;;;1.42;0.20;;;;;;;6.91;97.81;93347.53;2066192;28;20042;-58
2024/01/18 04:30:58;;;;;;;0.10;0.03;;;;;;;6.87;98.26;93349.53;2065584;28;20054;-58
2024/01/18 04:31:59;;;;;;;0.75;0.17;;;;;;;6.84;98.52;93344.59;2065556;28;20051;-58
2024/01/18 04:33:00;;;;;;;0.35;0.13;;;;;;;6.84;98.27;93344.59;2066078;28;20405;-58
2024/01/18 04:34:01;;;;;;;0.75;0.28;;;;;;;6.84;98.52;93340.28;2066140;28;20053;-58
2024/01/18 04:35:02;;;;;;;0.30;0.10;;;;;;;6.87;98.24;93341.81;2065578;28;20050;-57
2024/01/18 04:36:04;;;;;;;0.70;0.10;;;;;;;6.90;97.98;93345.91;2066288;28;20057;-58
2024/01/18 04:37:05;;;;;;;0.63;0.20;;;;;;;6.92;97.89;93341.44;2065586;28;20386;-58
2024/01/18 04:38:06;;;;;;;2.95;0.25;;;;;;;6.90;98.11;93339.00;2066084;28;20053;-57
2024/01/18 04:39:09;;;;;;;0.68;0.35;;;;;;;6.95;97.72;93347.22;2066105;28;20046;-57
2024/01/18 04:40:10;;;;;;;1.48;0.32;;;;;;;6.92;97.45;93341.44;2066092;28;20058;-58
2024/01/18 04:41:11;;;;;;;0.38;0.20;;;;;;;6.91;97.50;93353.53;2066140;28;20050;-57
2024/01/18 04:42:12;;;;;;;0.82;0.30;;;;;;;6.87;97.72;93346.13;2065447;28;20059;-58
2024/01/18 04:43:13;;;;;;;0.50;0.20;;;;;;;6.87;97.58;93356.44;2065438;28;20054;-57
2024/01/18 04:44:15;;;;;;;0.17;0.17;;;;;;;6.82;97.76;93344.72;2065854;28;20054;-58
2024/01/18 04:45:16;;;;;;;0.80;0.30;;;;;;;6.84;97.31;93352.31;2066212;28;20038;-57
2024/01/18 04:46:17;;;;;;;0.10;0.10;;;;;;;6.85;97.64;93351.41;2066217;28;20042;-57
2024/01/18 04:47:18;;;;;;;1.02;0.13;;;;;;;6.89;97.29;93331.34;2065436;28;20053;-57
2024/01/18 04:48:19;;;;;;;0.40;0.10;;;;;;;6.92;96.93;93352.56;2065688;28;20057;-57
2024/01/18 04:49:20;;;;;;;0.32;0.20;;;;;;;6.90;96.85;93348.50;2066109;28;20045;-57